sensor_id;sensor_type;location;lat;lon;timestamp;pressure;altitude;pressure_sealevel;temperature;humidity
8705;BME280;4389;41.932;25.904;2023-07-22T00:00:11;-16750.19;;;25.66;79.96
8705;BME280;4389;41.932;25.904;2023-07-22T00:02:41;-16749.78;;;25.65;80.35
8705;BME280;4389;41.932;25.904;2023-07-22T00:05:08;-16748.47;;;25.60;79.98
8705;BME280;4389;41.932;25.904;2023-07-22T00:07:35;-16749.13;;;25.62;80.57
8705;BME280;4389;41.932;25.904;2023-07-22T00:10:02;-16747.16;;;25.55;80.85
8705;BME280;4389;41.932;25.904;2023-07-22T00:12:31;-16746.47;;;25.52;80.75
8705;BME280;4389;41.932;25.904;2023-07-22T00:14:58;-16747.00;;;25.54;80.94
8705;BME280;4389;41.932;25.904;2023-07-22T00:17:25;-16746.88;;;25.54;80.65
8705;BME280;4389;41.932;25.904;2023-07-22T00:19:52;-16744.50;;;25.45;81.52
8705;BME280;4389;41.932;25.904;2023-07-22T00:22:20;-16746.63;;;25.53;81.07
8705;BME280;4389;41.932;25.904;2023-07-22T00:24:47;-16746.63;;;25.53;81.22
8705;BME280;4389;41.932;25.904;2023-07-22T00:27:14;-16746.09;;;25.51;81.41
8705;BME280;4389;41.932;25.904;2023-07-22T00:29:42;-16744.25;;;25.44;82.36
8705;BME280;4389;41.932;25.904;2023-07-22T00:32:09;-16744.63;;;25.45;82.00
8705;BME280;4389;41.932;25.904;2023-07-22T00:34:36;-16744.78;;;25.46;82.24
8705;BME280;4389;41.932;25.904;2023-07-22T00:37:03;-16745.16;;;25.47;82.04
8705;BME280;4389;41.932;25.904;2023-07-22T00:39:30;-16746.63;;;25.53;81.71
8705;BME280;4389;41.932;25.904;2023-07-22T00:41:57;-16744.91;;;25.46;81.74
8705;BME280;4389;41.932;25.904;2023-07-22T00:44:23;-16740.81;;;25.31;82.63
8705;BME280;4389;41.932;25.904;2023-07-22T00:46:53;-16742.91;;;25.39;83.16
8705;BME280;4389;41.932;25.904;2023-07-22T00:49:21;-16741.75;;;25.34;82.79
8705;BME280;4389;41.932;25.904;2023-07-22T00:51:49;-16741.06;;;25.32;82.96
8705;BME280;4389;41.932;25.904;2023-07-22T00:54:16;-16739.38;;;25.25;83.44
8705;BME280;4389;41.932;25.904;2023-07-22T00:56:43;-16740.41;;;25.29;83.79
8705;BME280;4389;41.932;25.904;2023-07-22T00:59:10;-16742.78;;;25.38;82.91
8705;BME280;4389;41.932;25.904;2023-07-22T01:01:37;-16739.75;;;25.27;83.35
8705;BME280;4389;41.932;25.904;2023-07-22T01:04:05;-16740.81;;;25.31;83.92
8705;BME280;4389;41.932;25.904;2023-07-22T01:06:34;-16738.97;;;25.24;83.63
8705;BME280;4389;41.932;25.904;2023-07-22T01:09:02;-16738.31;;;25.21;84.32
8705;BME280;4389;41.932;25.904;2023-07-22T01:11:30;-16740.94;;;25.31;83.65
8705;BME280;4389;41.932;25.904;2023-07-22T01:13:57;-16740.28;;;25.29;84.00
8705;BME280;4389;41.932;25.904;2023-07-22T01:16:26;-16741.34;;;25.33;83.73
8705;BME280;4389;41.932;25.904;2023-07-22T01:18:53;-16740.56;;;25.30;84.31
8705;BME280;4389;41.932;25.904;2023-07-22T01:21:23;-16739.38;;;25.25;83.87
8705;BME280;4389;41.932;25.904;2023-07-22T01:23:51;-16739.50;;;25.26;84.56
8705;BME280;4389;41.932;25.904;2023-07-22T01:26:19;-16736.31;;;25.14;84.77
8705;BME280;4389;41.932;25.904;2023-07-22T01:28:46;-16734.75;;;25.08;85.58
8705;BME280;4389;41.932;25.904;2023-07-22T01:31:13;-16735.81;;;25.12;85.46
8705;BME280;4389;41.932;25.904;2023-07-22T01:33:40;-16738.44;;;25.22;84.89
8705;BME280;4389;41.932;25.904;2023-07-22T01:36:07;-16735.66;;;25.11;85.56
8705;BME280;4389;41.932;25.904;2023-07-22T01:38:34;-16734.09;;;25.05;86.10
8705;BME280;4389;41.932;25.904;2023-07-22T01:41:02;-16734.09;;;25.05;85.60
8705;BME280;4389;41.932;25.904;2023-07-22T01:43:29;-16731.84;;;24.97;86.66
8705;BME280;4389;41.932;25.904;2023-07-22T01:45:56;-16728.41;;;24.84;87.26
8705;BME280;4389;41.932;25.904;2023-07-22T01:48:23;-16726.84;;;24.78;87.79
8705;BME280;4389;41.932;25.904;2023-07-22T01:50:50;-16725.78;;;24.74;87.86
8705;BME280;4389;41.932;25.904;2023-07-22T01:53:17;-16726.31;;;24.76;88.30
8705;BME280;4389;41.932;25.904;2023-07-22T01:55:43;-16726.03;;;24.75;88.27
8705;BME280;4389;41.932;25.904;2023-07-22T01:58:12;-16725.00;;;24.71;88.10
8705;BME280;4389;41.932;25.904;2023-07-22T02:00:39;-16722.75;;;24.62;88.78
8705;BME280;4389;41.932;25.904;2023-07-22T02:03:05;-16721.28;;;24.57;89.14
8705;BME280;4389;41.932;25.904;2023-07-22T02:05:32;-16721.81;;;24.59;89.39
8705;BME280;4389;41.932;25.904;2023-07-22T02:07:59;-16719.44;;;24.50;90.22
8705;BME280;4389;41.932;25.904;2023-07-22T02:10:26;-16718.78;;;24.47;90.27
8705;BME280;4389;41.932;25.904;2023-07-22T02:12:53;-16719.56;;;24.50;90.27
8705;BME280;4389;41.932;25.904;2023-07-22T02:15:21;-16719.19;;;24.49;90.73
8705;BME280;4389;41.932;25.904;2023-07-22T02:17:49;-16717.88;;;24.44;90.96
8705;BME280;4389;41.932;25.904;2023-07-22T02:20:16;-16716.16;;;24.38;91.36
8705;BME280;4389;41.932;25.904;2023-07-22T02:22:43;-16714.16;;;24.30;91.82
8705;BME280;4389;41.932;25.904;2023-07-22T02:25:10;-16714.97;;;24.33;91.96
8705;BME280;4389;41.932;25.904;2023-07-22T02:27:37;-16715.75;;;24.36;91.77
8705;BME280;4389;41.932;25.904;2023-07-22T02:30:07;-16717.72;;;24.43;91.78
8705;BME280;4389;41.932;25.904;2023-07-22T02:32:38;-16714.03;;;24.30;92.37
8705;BME280;4389;41.932;25.904;2023-07-22T02:35:06;-16712.31;;;24.23;92.61
8705;BME280;4389;41.932;25.904;2023-07-22T02:37:33;-16712.31;;;24.23;93.13
8705;BME280;4389;41.932;25.904;2023-07-22T02:40:00;-16714.16;;;24.30;92.89
8705;BME280;4389;41.932;25.904;2023-07-22T02:42:33;-16714.69;;;24.32;92.95
8705;BME280;4389;41.932;25.904;2023-07-22T02:45:01;-16714.97;;;24.33;92.83
8705;BME280;4389;41.932;25.904;2023-07-22T02:47:28;-16713.91;;;24.29;93.17
8705;BME280;4389;41.932;25.904;2023-07-22T02:49:56;-16714.56;;;24.32;93.06
8705;BME280;4389;41.932;25.904;2023-07-22T02:52:23;-16715.34;;;24.34;93.17
8705;BME280;4389;41.932;25.904;2023-07-22T02:55:04;-16712.84;;;24.25;93.31
8705;BME280;4389;41.932;25.904;2023-07-22T02:57:32;-16713.91;;;24.29;93.37
8705;BME280;4389;41.932;25.904;2023-07-22T02:59:58;-16716.94;;;24.40;93.17
8705;BME280;4389;41.932;25.904;2023-07-22T03:02:25;-16716.94;;;24.40;92.68
8705;BME280;4389;41.932;25.904;2023-07-22T03:04:52;-16715.75;;;24.36;92.87
8705;BME280;4389;41.932;25.904;2023-07-22T03:07:20;-16717.34;;;24.42;92.76
8705;BME280;4389;41.932;25.904;2023-07-22T03:09:47;-16717.59;;;24.43;92.89
8705;BME280;4389;41.932;25.904;2023-07-22T03:12:14;-16716.81;;;24.40;93.10
8705;BME280;4389;41.932;25.904;2023-07-22T03:14:41;-16719.19;;;24.49;92.80
8705;BME280;4389;41.932;25.904;2023-07-22T03:17:07;-16718.78;;;24.47;92.96
8705;BME280;4389;41.932;25.904;2023-07-22T03:19:34;-16718.91;;;24.48;92.96
8705;BME280;4389;41.932;25.904;2023-07-22T03:22:01;-16720.50;;;24.54;92.89
8705;BME280;4389;41.932;25.904;2023-07-22T03:24:30;-16723.41;;;24.65;92.40
8705;BME280;4389;41.932;25.904;2023-07-22T03:26:57;-16726.56;;;24.77;92.21
8705;BME280;4389;41.932;25.904;2023-07-22T03:29:24;-16733.69;;;25.04;91.94
8705;BME280;4389;41.932;25.904;2023-07-22T03:31:50;-16736.47;;;25.14;91.47
8705;BME280;4389;41.932;25.904;2023-07-22T03:34:17;-16747.66;;;25.57;89.18
8705;BME280;4389;41.932;25.904;2023-07-22T03:36:45;-16756.09;;;25.89;88.46
8705;BME280;4389;41.932;25.904;2023-07-22T03:39:12;-16763.63;;;26.17;86.17
8705;BME280;4389;41.932;25.904;2023-07-22T03:41:40;-16767.19;;;26.31;85.10
8705;BME280;4389;41.932;25.904;2023-07-22T03:44:07;-16768.63;;;26.36;85.07
8705;BME280;4389;41.932;25.904;2023-07-22T03:46:34;-16768.75;;;26.37;84.75
8705;BME280;4389;41.932;25.904;2023-07-22T03:49:00;-16771.91;;;26.49;84.39
8705;BME280;4389;41.932;25.904;2023-07-22T03:51:27;-16777.72;;;26.71;83.74
8705;BME280;4389;41.932;25.904;2023-07-22T03:53:54;-16792.88;;;27.28;81.22
8705;BME280;4389;41.932;25.904;2023-07-22T03:56:21;-16793.53;;;27.31;79.83
8705;BME280;4389;41.932;25.904;2023-07-22T03:58:50;-16793.78;;;27.32;79.36
8705;BME280;4389;41.932;25.904;2023-07-22T04:01:18;-16783.50;;;26.93;81.04
8705;BME280;4389;41.932;25.904;2023-07-22T04:03:47;-16792.72;;;27.28;80.55
8705;BME280;4389;41.932;25.904;2023-07-22T04:06:14;-16799.84;;;27.55;79.65
8705;BME280;4389;41.932;25.904;2023-07-22T04:08:41;-16810.91;;;27.97;77.68
8705;BME280;4389;41.932;25.904;2023-07-22T04:11:08;-16825.63;;;28.53;75.42
8705;BME280;4389;41.932;25.904;2023-07-22T04:13:34;-16838.78;;;29.03;72.06
8705;BME280;4389;41.932;25.904;2023-07-22T04:16:03;-16837.72;;;28.99;72.43
8705;BME280;4389;41.932;25.904;2023-07-22T04:18:31;-16826.69;;;28.57;74.02
8705;BME280;4389;41.932;25.904;2023-07-22T04:21:00;-16806.56;;;27.80;77.11
8705;BME280;4389;41.932;25.904;2023-07-22T04:23:27;-16793.00;;;27.29;80.09
8705;BME280;4389;41.932;25.904;2023-07-22T04:25:54;-16783.25;;;26.92;82.62
8705;BME280;4389;41.932;25.904;2023-07-22T04:28:20;-16780.47;;;26.81;83.44
8705;BME280;4389;41.932;25.904;2023-07-22T04:30:55;-16778.25;;;26.73;83.65
8705;BME280;4389;41.932;25.904;2023-07-22T04:33:25;-16785.09;;;26.99;83.09
8705;BME280;4389;41.932;25.904;2023-07-22T04:35:53;-16782.47;;;26.89;83.56
8705;BME280;4389;41.932;25.904;2023-07-22T04:38:21;-16776.94;;;26.68;85.07
8705;BME280;4389;41.932;25.904;2023-07-22T04:40:48;-16777.19;;;26.69;86.04
8705;BME280;4389;41.932;25.904;2023-07-22T04:43:14;-16784.97;;;26.98;84.87
8705;BME280;4389;41.932;25.904;2023-07-22T04:45:44;-16790.63;;;27.20;84.73
8705;BME280;4389;41.932;25.904;2023-07-22T04:48:14;-16807.75;;;27.85;82.04
8705;BME280;4389;41.932;25.904;2023-07-22T04:50:42;-16826.69;;;28.57;78.22
8705;BME280;4389;41.932;25.904;2023-07-22T04:53:11;-16826.16;;;28.55;79.08
8705;BME280;4389;41.932;25.904;2023-07-22T04:55:39;-16831.16;;;28.74;77.99
8705;BME280;4389;41.932;25.904;2023-07-22T04:58:06;-16836.94;;;28.96;77.29
8705;BME280;4389;41.932;25.904;2023-07-22T05:00:33;-16847.47;;;29.36;76.21
8705;BME280;4389;41.932;25.904;2023-07-22T05:03:01;-16871.66;;;30.27;71.68
8705;BME280;4389;41.932;25.904;2023-07-22T05:05:27;-16865.34;;;30.04;71.45
8705;BME280;4389;41.932;25.904;2023-07-22T05:07:56;-16840.63;;;29.10;75.60
8705;BME280;4389;41.932;25.904;2023-07-22T05:10:23;-16836.94;;;28.96;76.51
8705;BME280;4389;41.932;25.904;2023-07-22T05:12:50;-16836.81;;;28.95;76.84
8705;BME280;4389;41.932;25.904;2023-07-22T05:15:17;-16828.53;;;28.64;77.63
8705;BME280;4389;41.932;25.904;2023-07-22T05:17:44;-16824.31;;;28.48;77.91
8705;BME280;4389;41.932;25.904;2023-07-22T05:20:11;-16822.22;;;28.40;78.66
8705;BME280;4389;41.932;25.904;2023-07-22T05:22:39;-16826.03;;;28.54;78.18
8705;BME280;4389;41.932;25.904;2023-07-22T05:25:08;-16832.47;;;28.79;77.27
8705;BME280;4389;41.932;25.904;2023-07-22T05:27:35;-16833.66;;;28.83;76.75
8705;BME280;4389;41.932;25.904;2023-07-22T05:30:03;-16840.88;;;29.11;75.43
8705;BME280;4389;41.932;25.904;2023-07-22T05:32:30;-16834.31;;;28.86;76.59
8705;BME280;4389;41.932;25.904;2023-07-22T05:34:57;-16830.38;;;28.71;76.55
8705;BME280;4389;41.932;25.904;2023-07-22T05:37:24;-16832.22;;;28.78;77.27
8705;BME280;4389;41.932;25.904;2023-07-22T05:39:51;-16832.72;;;28.80;76.36
8705;BME280;4389;41.932;25.904;2023-07-22T05:42:19;-16838.53;;;29.02;75.52
8705;BME280;4389;41.932;25.904;2023-07-22T05:44:47;-16843.13;;;29.19;75.27
8705;BME280;4389;41.932;25.904;2023-07-22T05:47:14;-16846.00;;;29.30;75.20
8705;BME280;4389;41.932;25.904;2023-07-22T05:49:41;-16853.91;;;29.60;73.56
8705;BME280;4389;41.932;25.904;2023-07-22T05:52:08;-16849.31;;;29.43;74.16
8705;BME280;4389;41.932;25.904;2023-07-22T05:54:35;-16848.78;;;29.41;73.48
8705;BME280;4389;41.932;25.904;2023-07-22T05:57:01;-16853.25;;;29.58;73.47
8705;BME280;4389;41.932;25.904;2023-07-22T05:59:30;-16852.72;;;29.56;72.72
8705;BME280;4389;41.932;25.904;2023-07-22T06:01:57;-16848.78;;;29.41;73.44
8705;BME280;4389;41.932;25.904;2023-07-22T06:04:24;-16852.47;;;29.55;72.36
8705;BME280;4389;41.932;25.904;2023-07-22T06:06:51;-16852.72;;;29.56;71.61
8705;BME280;4389;41.932;25.904;2023-07-22T06:09:18;-16857.47;;;29.74;70.90
8705;BME280;4389;41.932;25.904;2023-07-22T06:11:45;-16857.97;;;29.76;71.22
8705;BME280;4389;41.932;25.904;2023-07-22T06:14:13;-16854.97;;;29.64;71.59
8705;BME280;4389;41.932;25.904;2023-07-22T06:16:41;-16849.69;;;29.44;72.17
8705;BME280;4389;41.932;25.904;2023-07-22T06:19:08;-16839.56;;;29.06;73.15
8705;BME280;4389;41.932;25.904;2023-07-22T06:21:35;-16830.50;;;28.71;75.51
8705;BME280;4389;41.932;25.904;2023-07-22T06:24:01;-16837.72;;;28.99;74.66
8705;BME280;4389;41.932;25.904;2023-07-22T06:26:29;-16838.00;;;29.00;74.31
8705;BME280;4389;41.932;25.904;2023-07-22T06:28:55;-16847.59;;;29.36;73.28
8705;BME280;4389;41.932;25.904;2023-07-22T06:31:22;-16845.34;;;29.28;72.85
8705;BME280;4389;41.932;25.904;2023-07-22T06:33:50;-16847.47;;;29.36;73.06
8705;BME280;4389;41.932;25.904;2023-07-22T06:36:17;-16849.81;;;29.45;72.07
8705;BME280;4389;41.932;25.904;2023-07-22T06:38:44;-16850.88;;;29.49;72.37
8705;BME280;4389;41.932;25.904;2023-07-22T06:41:11;-16851.41;;;29.51;71.46
8705;BME280;4389;41.932;25.904;2023-07-22T06:43:37;-16852.31;;;29.54;71.44
8705;BME280;4389;41.932;25.904;2023-07-22T06:46:04;-16853.50;;;29.59;71.93
8705;BME280;4389;41.932;25.904;2023-07-22T06:48:31;-16857.97;;;29.76;71.31
8705;BME280;4389;41.932;25.904;2023-07-22T06:50:59;-16864.81;;;30.02;69.51
8705;BME280;4389;41.932;25.904;2023-07-22T06:53:26;-16871.13;;;30.26;68.12
8705;BME280;4389;41.932;25.904;2023-07-22T06:55:53;-16874.53;;;30.38;66.47
8705;BME280;4389;41.932;25.904;2023-07-22T06:58:20;-16874.13;;;30.37;66.85
8705;BME280;4389;41.932;25.904;2023-07-22T07:00:47;-16873.75;;;30.35;64.35
8705;BME280;4389;41.932;25.904;2023-07-22T07:03:15;-16882.94;;;30.70;63.49
8705;BME280;4389;41.932;25.904;2023-07-22T07:05:41;-16887.13;;;30.86;62.42
8705;BME280;4389;41.932;25.904;2023-07-22T07:08:10;-16889.38;;;30.95;61.02
8705;BME280;4389;41.932;25.904;2023-07-22T07:10:37;-16893.84;;;31.12;60.10
8705;BME280;4389;41.932;25.904;2023-07-22T07:13:05;-16900.41;;;31.37;58.93
8705;BME280;4389;41.932;25.904;2023-07-22T07:15:32;-16890.81;;;31.00;60.39
8705;BME280;4389;41.932;25.904;2023-07-22T07:17:59;-16887.41;;;30.87;59.84
8705;BME280;4389;41.932;25.904;2023-07-22T07:20:26;-16893.19;;;31.09;59.87
8705;BME280;4389;41.932;25.904;2023-07-22T07:22:52;-16900.78;;;31.38;56.66
8705;BME280;4389;41.932;25.904;2023-07-22T07:25:21;-16901.59;;;31.41;56.10
8705;BME280;4389;41.932;25.904;2023-07-22T07:27:48;-16905.50;;;31.56;55.58
8705;BME280;4389;41.932;25.904;2023-07-22T07:30:16;-16901.59;;;31.41;57.64
8705;BME280;4389;41.932;25.904;2023-07-22T07:32:43;-16900.78;;;31.38;55.63
8705;BME280;4389;41.932;25.904;2023-07-22T07:35:11;-16903.41;;;31.48;56.74
8705;BME280;4389;41.932;25.904;2023-07-22T07:37:38;-16906.56;;;31.60;53.93
8705;BME280;4389;41.932;25.904;2023-07-22T07:40:06;-16907.88;;;31.65;54.07
8705;BME280;4389;41.932;25.904;2023-07-22T07:42:35;-16906.56;;;31.60;55.03
8705;BME280;4389;41.932;25.904;2023-07-22T07:45:02;-16908.41;;;31.67;54.17
8705;BME280;4389;41.932;25.904;2023-07-22T07:47:29;-16917.97;;;32.04;52.80
8705;BME280;4389;41.932;25.904;2023-07-22T07:49:56;-16920.22;;;32.12;52.62
8705;BME280;4389;41.932;25.904;2023-07-22T07:52:23;-16920.72;;;32.14;52.36
8705;BME280;4389;41.932;25.904;2023-07-22T07:54:49;-16918.91;;;32.07;52.33
8705;BME280;4389;41.932;25.904;2023-07-22T07:57:16;-16919.44;;;32.09;52.49
8705;BME280;4389;41.932;25.904;2023-07-22T07:59:44;-16929.41;;;32.47;51.46
8705;BME280;4389;41.932;25.904;2023-07-22T08:02:11;-16930.44;;;32.51;51.36
8705;BME280;4389;41.932;25.904;2023-07-22T08:04:38;-16930.72;;;32.52;52.13
8705;BME280;4389;41.932;25.904;2023-07-22T08:07:06;-16930.44;;;32.51;51.90
8705;BME280;4389;41.932;25.904;2023-07-22T08:09:33;-16930.06;;;32.50;50.89
8705;BME280;4389;41.932;25.904;2023-07-22T08:12:01;-16932.66;;;32.60;51.29
8705;BME280;4389;41.932;25.904;2023-07-22T08:14:28;-16932.28;;;32.58;49.75
8705;BME280;4389;41.932;25.904;2023-07-22T08:16:57;-16932.94;;;32.61;50.11
8705;BME280;4389;41.932;25.904;2023-07-22T08:19:23;-16935.41;;;32.70;49.56
8705;BME280;4389;41.932;25.904;2023-07-22T08:21:50;-16927.69;;;32.41;50.05
8705;BME280;4389;41.932;25.904;2023-07-22T08:24:17;-16925.31;;;32.32;50.15
8705;BME280;4389;41.932;25.904;2023-07-22T08:26:44;-16925.72;;;32.33;49.88
8705;BME280;4389;41.932;25.904;2023-07-22T08:29:11;-16928.34;;;32.43;49.87
8705;BME280;4389;41.932;25.904;2023-07-22T08:31:38;-16933.31;;;32.62;49.19
8705;BME280;4389;41.932;25.904;2023-07-22T08:34:06;-16941.97;;;32.95;48.53
8705;BME280;4389;41.932;25.904;2023-07-22T08:36:33;-16946.97;;;33.14;47.76
8705;BME280;4389;41.932;25.904;2023-07-22T08:39:01;-16943.69;;;33.02;48.85
8705;BME280;4389;41.932;25.904;2023-07-22T08:41:28;-16943.94;;;33.03;48.81
8705;BME280;4389;41.932;25.904;2023-07-22T08:43:57;-16950.38;;;33.27;47.31
8705;BME280;4389;41.932;25.904;2023-07-22T08:46:29;-16953.00;;;33.37;47.73
8705;BME280;4389;41.932;25.904;2023-07-22T08:48:56;-16950.91;;;33.29;49.14
8705;BME280;4389;41.932;25.904;2023-07-22T08:51:26;-16953.25;;;33.38;48.78
8705;BME280;4389;41.932;25.904;2023-07-22T08:53:55;-16954.16;;;33.42;49.31
8705;BME280;4389;41.932;25.904;2023-07-22T08:56:24;-16955.75;;;33.48;48.55
8705;BME280;4389;41.932;25.904;2023-07-22T08:58:52;-16953.38;;;33.39;48.10
8705;BME280;4389;41.932;25.904;2023-07-22T09:01:20;-16949.31;;;33.23;48.86
8705;BME280;4389;41.932;25.904;2023-07-22T09:03:48;-16957.69;;;33.55;48.28
8705;BME280;4389;41.932;25.904;2023-07-22T09:06:17;-16965.84;;;33.86;47.43
8705;BME280;4389;41.932;25.904;2023-07-22T09:08:46;-16973.69;;;34.16;47.36
8705;BME280;4389;41.932;25.904;2023-07-22T09:11:14;-16967.94;;;33.94;47.47
8705;BME280;4389;41.932;25.904;2023-07-22T09:13:44;-16962.69;;;33.74;47.08
8705;BME280;4389;41.932;25.904;2023-07-22T09:16:11;-16959.53;;;33.62;47.88
8705;BME280;4389;41.932;25.904;2023-07-22T09:18:39;-16967.00;;;33.91;46.90
8705;BME280;4389;41.932;25.904;2023-07-22T09:21:06;-16976.19;;;34.26;46.26
8705;BME280;4389;41.932;25.904;2023-07-22T09:23:33;-16977.88;;;34.32;45.71
8705;BME280;4389;41.932;25.904;2023-07-22T09:26:11;-16973.28;;;34.15;46.40
8705;BME280;4389;41.932;25.904;2023-07-22T09:28:48;-16981.53;;;34.46;46.54
8705;BME280;4389;41.932;25.904;2023-07-22T09:31:15;-16981.28;;;34.45;45.37
8705;BME280;4389;41.932;25.904;2023-07-22T09:33:42;-16980.22;;;34.41;45.27
8705;BME280;4389;41.932;25.904;2023-07-22T09:36:10;-16984.28;;;34.57;45.84
8705;BME280;4389;41.932;25.904;2023-07-22T09:38:37;-16991.22;;;34.83;45.50
8705;BME280;4389;41.932;25.904;2023-07-22T09:41:04;-16992.53;;;34.88;44.42
8705;BME280;4389;41.932;25.904;2023-07-22T09:43:36;-16991.50;;;34.84;44.13
8705;BME280;4389;41.932;25.904;2023-07-22T09:46:07;-16989.00;;;34.75;45.00
8705;BME280;4389;41.932;25.904;2023-07-22T09:48:41;-16989.66;;;34.77;44.66
8705;BME280;4389;41.932;25.904;2023-07-22T09:51:13;-16993.31;;;34.91;44.65
8705;BME280;4389;41.932;25.904;2023-07-22T09:53:47;-16996.72;;;35.04;44.74
8705;BME280;4389;41.932;25.904;2023-07-22T09:56:14;-16997.63;;;35.08;45.04
8705;BME280;4389;41.932;25.904;2023-07-22T09:58:45;-16996.84;;;35.05;43.87
8705;BME280;4389;41.932;25.904;2023-07-22T10:01:15;-16994.88;;;34.97;44.25
8705;BME280;4389;41.932;25.904;2023-07-22T10:03:45;-16995.69;;;35.00;44.01
8705;BME280;4389;41.932;25.904;2023-07-22T10:06:13;-16991.88;;;34.86;44.28
8705;BME280;4389;41.932;25.904;2023-07-22T10:08:43;-16992.78;;;34.89;44.54
8705;BME280;4389;41.932;25.904;2023-07-22T10:11:11;-16999.88;;;35.16;43.97
8705;BME280;4389;41.932;25.904;2023-07-22T10:13:39;-17005.63;;;35.38;44.13
8705;BME280;4389;41.932;25.904;2023-07-22T10:16:08;-17004.56;;;35.34;42.79
8705;BME280;4389;41.932;25.904;2023-07-22T10:18:36;-17004.84;;;35.35;43.21
8705;BME280;4389;41.932;25.904;2023-07-22T10:21:04;-17010.31;;;35.56;43.50
8705;BME280;4389;41.932;25.904;2023-07-22T10:23:32;-17009.16;;;35.52;42.94
8705;BME280;4389;41.932;25.904;2023-07-22T10:25:59;-17009.53;;;35.53;42.77
8705;BME280;4389;41.932;25.904;2023-07-22T10:28:26;-17008.75;;;35.50;42.93
8705;BME280;4389;41.932;25.904;2023-07-22T10:30:53;-17014.91;;;35.74;42.44
8705;BME280;4389;41.932;25.904;2023-07-22T10:33:21;-17025.22;;;36.13;41.73
8705;BME280;4389;41.932;25.904;2023-07-22T10:36:05;-17025.88;;;36.16;41.47
8705;BME280;4389;41.932;25.904;2023-07-22T10:38:35;-17026.41;;;36.18;40.48
8705;BME280;4389;41.932;25.904;2023-07-22T10:41:11;-17031.00;;;36.35;40.51
8705;BME280;4389;41.932;25.904;2023-07-22T10:43:39;-17031.91;;;36.39;40.97
8705;BME280;4389;41.932;25.904;2023-07-22T10:46:07;-17030.34;;;36.33;40.82
8705;BME280;4389;41.932;25.904;2023-07-22T10:48:37;-17031.63;;;36.38;41.06
8705;BME280;4389;41.932;25.904;2023-07-22T10:51:07;-17028.38;;;36.25;41.90
8705;BME280;4389;41.932;25.904;2023-07-22T10:53:40;-17031.78;;;36.38;40.37
8705;BME280;4389;41.932;25.904;2023-07-22T10:56:15;-17030.19;;;36.32;41.25
8705;BME280;4389;41.932;25.904;2023-07-22T10:58:57;-17028.09;;;36.24;40.43
8705;BME280;4389;41.932;25.904;2023-07-22T11:01:31;-17034.38;;;36.48;41.62
8705;BME280;4389;41.932;25.904;2023-07-22T11:04:22;-17036.06;;;36.55;39.78
8705;BME280;4389;41.932;25.904;2023-07-22T11:06:57;-17040.78;;;36.72;40.29
8705;BME280;4389;41.932;25.904;2023-07-22T11:09:40;-17039.88;;;36.69;40.06
8705;BME280;4389;41.932;25.904;2023-07-22T11:12:12;-17039.34;;;36.67;39.73
8705;BME280;4389;41.932;25.904;2023-07-22T11:14:49;-17045.22;;;36.89;39.63
8705;BME280;4389;41.932;25.904;2023-07-22T11:17:27;-17046.66;;;36.95;40.26
8705;BME280;4389;41.932;25.904;2023-07-22T11:19:57;-17043.53;;;36.83;39.77
8705;BME280;4389;41.932;25.904;2023-07-22T11:22:24;-17045.22;;;36.89;39.71
8705;BME280;4389;41.932;25.904;2023-07-22T11:24:52;-17049.53;;;37.06;39.94
8705;BME280;4389;41.932;25.904;2023-07-22T11:27:19;-17050.59;;;37.10;39.87
8705;BME280;4389;41.932;25.904;2023-07-22T11:29:48;-17048.50;;;37.02;39.61
8705;BME280;4389;41.932;25.904;2023-07-22T11:32:15;-17051.88;;;37.15;39.27
8705;BME280;4389;41.932;25.904;2023-07-22T11:34:43;-17052.16;;;37.16;39.95
8705;BME280;4389;41.932;25.904;2023-07-22T11:37:18;-17052.66;;;37.18;37.99
8705;BME280;4389;41.932;25.904;2023-07-22T11:39:45;-17056.47;;;37.32;39.47
8705;BME280;4389;41.932;25.904;2023-07-22T11:42:11;-17050.59;;;37.10;38.80
8705;BME280;4389;41.932;25.904;2023-07-22T11:44:38;-17055.28;;;37.28;38.40
8705;BME280;4389;41.932;25.904;2023-07-22T11:47:06;-17053.31;;;37.20;38.08
8705;BME280;4389;41.932;25.904;2023-07-22T11:49:35;-17053.19;;;37.20;37.36
8705;BME280;4389;41.932;25.904;2023-07-22T11:52:04;-17055.53;;;37.29;37.45
8705;BME280;4389;41.932;25.904;2023-07-22T11:54:34;-17060.91;;;37.49;36.42
8705;BME280;4389;41.932;25.904;2023-07-22T11:57:17;-17071.47;;;37.90;35.13
8705;BME280;4389;41.932;25.904;2023-07-22T11:59:52;-17085.81;;;38.45;33.75
8705;BME280;4389;41.932;25.904;2023-07-22T12:02:21;-17096.00;;;38.84;33.53
8705;BME280;4389;41.932;25.904;2023-07-22T12:04:51;-17102.38;;;39.08;32.78
8705;BME280;4389;41.932;25.904;2023-07-22T12:07:23;-17091.94;;;38.68;32.96
8705;BME280;4389;41.932;25.904;2023-07-22T12:09:53;-17088.69;;;38.56;32.88
8705;BME280;4389;41.932;25.904;2023-07-22T12:12:20;-17094.03;;;38.76;32.34
8705;BME280;4389;41.932;25.904;2023-07-22T12:14:47;-17102.78;;;39.10;32.29
8705;BME280;4389;41.932;25.904;2023-07-22T12:17:14;-17111.91;;;39.45;31.38
8705;BME280;4389;41.932;25.904;2023-07-22T12:19:50;-17115.03;;;39.57;31.60
8705;BME280;4389;41.932;25.904;2023-07-22T12:22:17;-17119.72;;;39.75;30.63
8705;BME280;4389;41.932;25.904;2023-07-22T12:24:47;-17121.28;;;39.81;29.03
8705;BME280;4389;41.932;25.904;2023-07-22T12:27:16;-17122.06;;;39.84;29.03
8705;BME280;4389;41.932;25.904;2023-07-22T12:29:43;-17122.31;;;39.85;29.60
8705;BME280;4389;41.932;25.904;2023-07-22T12:32:10;-17123.63;;;39.90;29.43
8705;BME280;4389;41.932;25.904;2023-07-22T12:34:36;-17124.53;;;39.93;28.41
8705;BME280;4389;41.932;25.904;2023-07-22T12:37:03;-17121.53;;;39.82;28.71
8705;BME280;4389;41.932;25.904;2023-07-22T12:39:30;-17121.53;;;39.82;29.12
8705;BME280;4389;41.932;25.904;2023-07-22T12:41:57;-17121.28;;;39.81;28.94
8705;BME280;4389;41.932;25.904;2023-07-22T12:44:25;-17124.91;;;39.95;30.01
8705;BME280;4389;41.932;25.904;2023-07-22T12:46:52;-17123.34;;;39.89;28.85
8705;BME280;4389;41.932;25.904;2023-07-22T12:49:19;-17121.41;;;39.81;28.63
8705;BME280;4389;41.932;25.904;2023-07-22T12:51:46;-17127.53;;;40.05;29.00
8705;BME280;4389;41.932;25.904;2023-07-22T12:54:13;-17126.75;;;40.02;28.04
8705;BME280;4389;41.932;25.904;2023-07-22T12:56:40;-17124.28;;;39.92;28.55
8705;BME280;4389;41.932;25.904;2023-07-22T12:59:08;-17123.63;;;39.90;28.77
8705;BME280;4389;41.932;25.904;2023-07-22T13:01:37;-17128.03;;;40.07;28.86
8705;BME280;4389;41.932;25.904;2023-07-22T13:04:06;-17130.91;;;40.18;28.33